Time;durP1;ratioP1;P1;durP2;ratioP2;P2;SDS_P1;SDS_P2;PMS_P1;PMS_P2;Temp;Humidity;BMP_temperature;BMP_pressure;BME280_temperature;BME280_humidity;BME280_pressure;Samples;Min_cycle;Max_cycle;Signal;HPM_P1;HPM_P2
2021/10/08 00:00:25;;;;;;;;;;;;;;;8.47;100.00;102441.78;5072055;28;19963;-74
2021/10/08 00:02:51;;;;;;;;;;;;;;;8.42;100.00;102438.38;5072177;28;19959;-75
2021/10/08 00:05:18;;;;;;;;;;;;;;;8.39;100.00;102427.66;5071886;28;19959;-74
2021/10/08 00:07:45;;;;;;;;;;;;;;;8.37;100.00;102432.28;5072099;28;19924;-74
2021/10/08 00:10:12;;;;;;;;;;;;;;;8.36;100.00;102431.41;5072314;28;19924;-75
2021/10/08 00:12:38;;;;;;;;;;;;;;;8.36;100.00;102441.34;5071864;28;19968;-75
2021/10/08 00:15:05;;;;;;;;;;;;;;;8.31;100.00;102432.53;5071951;28;19944;-74
2021/10/08 00:17:32;;;;;;;;;;;;;;;8.28;100.00;102436.25;5071649;28;20023;-74
2021/10/08 00:19:58;;;;;;;;;;;;;;;8.24;100.00;102434.66;5070758;28;20360;-74
2021/10/08 00:22:24;;;;;;;;;;;;;;;8.23;100.00;102434.72;5071937;28;20023;-74
2021/10/08 00:24:52;;;;;;;;;;;;;;;8.15;100.00;102433.25;5070412;28;19967;-74
2021/10/08 00:27:19;;;;;;;;;;;;;;;8.10;100.00;102429.84;5071644;28;19966;-74
2021/10/08 00:29:45;;;;;;;;;;;;;;;8.04;100.00;102430.09;5070489;28;19932;-74
2021/10/08 00:32:11;;;;;;;;;;;;;;;7.96;100.00;102426.88;5071435;28;19924;-74
2021/10/08 00:34:37;;;;;;;;;;;;;;;7.93;100.00;102427.00;5071637;28;20439;-74
2021/10/08 00:37:04;;;;;;;;;;;;;;;7.90;100.00;102432.53;5070183;28;19924;-75
2021/10/08 00:39:30;;;;;;;;;;;;;;;7.87;100.00;102436.25;5070537;28;19928;-75
2021/10/08 00:41:58;;;;;;;;;;;;;;;7.85;100.00;102425.50;5071169;28;20315;-75
2021/10/08 00:44:25;;;;;;;;;;;;;;;7.83;100.00;102432.81;5070286;28;19925;-75
2021/10/08 00:46:51;;;;;;;;;;;;;;;7.78;100.00;102439.34;5070102;28;19951;-75
2021/10/08 00:49:17;;;;;;;;;;;;;;;7.74;100.00;102429.59;5071475;28;20335;-75
2021/10/08 00:51:44;;;;;;;;;;;;;;;7.73;100.00;102435.97;5070262;28;19962;-75
2021/10/08 00:54:10;;;;;;;;;;;;;;;7.73;100.00;102430.56;5070219;28;19947;-75
2021/10/08 00:56:36;;;;;;;;;;;;;;;7.70;100.00;102434.28;5070047;28;19960;-75
2021/10/08 00:59:04;;;;;;;;;;;;;;;7.70;100.00;102432.44;5070146;28;19952;-75
2021/10/08 01:01:30;;;;;;;;;;;;;;;7.76;100.00;102434.00;5069622;28;20330;-75
2021/10/08 01:03:57;;;;;;;;;;;;;;;7.78;100.00;102433.94;5071338;28;19970;-75
2021/10/08 01:06:23;;;;;;;;;;;;;;;7.84;100.00;102434.56;5069380;28;19974;-75
2021/10/08 01:08:49;;;;;;;;;;;;;;;7.83;100.00;102427.41;5069690;28;19952;-75
2021/10/08 01:11:19;;;;;;;;;;;;;;;7.83;100.00;102427.41;5069814;28;19924;-75
2021/10/08 01:13:47;;;;;;;;;;;;;;;7.84;100.00;102430.97;5070058;28;19925;-75
2021/10/08 01:16:23;;;;;;;;;;;;;;;7.85;100.00;102428.19;5069564;28;19932;-74
2021/10/08 01:18:50;;;;;;;;;;;;;;;7.80;100.00;102432.94;5053121;28;20348;-75
2021/10/08 01:21:18;;;;;;;;;;;;;;;7.73;100.00;102436.84;5069789;28;19925;-75
2021/10/08 01:23:46;;;;;;;;;;;;;;;7.71;100.00;102425.22;5071119;28;19954;-75
2021/10/08 01:26:13;;;;;;;;;;;;;;;7.72;100.00;102429.66;5069695;28;19928;-75
2021/10/08 01:28:39;;;;;;;;;;;;;;;7.80;100.00;102432.03;5071069;28;19979;-75
2021/10/08 01:31:11;;;;;;;;;;;;;;;7.87;100.00;102431.72;5070680;28;19937;-70
2021/10/08 01:33:59;;;;;;;;;;;;;;;7.98;100.00;102433.97;5069787;28;19924;-70
2021/10/08 01:36:30;;;;;;;;;;;;;;;8.04;100.00;102431.00;5069444;28;20303;-70
2021/10/08 01:39:02;;;;;;;;;;;;;;;8.13;100.00;102440.53;5069608;28;19928;-70
2021/10/08 01:41:32;;;;;;;;;;;;;;;8.19;100.00;102434.84;5069499;28;19928;-70
2021/10/08 01:43:58;;;;;;;;;;;;;;;8.31;100.00;102437.94;5069668;28;19924;-70
2021/10/08 01:46:25;;;;;;;;;;;;;;;8.45;100.00;102445.47;5069547;28;19963;-70
2021/10/08 01:48:52;;;;;;;;;;;;;;;8.50;100.00;102446.19;5069714;28;19928;-70
2021/10/08 01:51:22;;;;;;;;;;;;;;;8.57;100.00;102442.25;5069595;28;19936;-70
2021/10/08 01:53:50;;;;;;;;;;;;;;;8.61;100.00;102440.28;5070750;28;19974;-70
2021/10/08 01:56:17;;;;;;;;;;;;;;;8.65;100.00;102437.34;5070272;28;19925;-70
2021/10/08 01:58:53;;;;;;;;;;;;;;;8.71;100.00;102447.91;5069550;28;20023;-70
2021/10/08 02:01:21;;;;;;;;;;;;;;;8.77;100.00;102443.16;5069335;28;20284;-70
2021/10/08 02:03:51;;;;;;;;;;;;;;;8.83;100.00;102437.44;5069362;28;19945;-75
2021/10/08 02:06:21;;;;;;;;;;;;;;;8.87;100.00;102441.75;5069305;28;19925;-75
2021/10/08 02:08:48;;;;;;;;;;;;;;;8.92;100.00;102447.84;5069446;28;20382;-75
2021/10/08 02:11:17;;;;;;;;;;;;;;;8.96;100.00;102438.63;5069456;28;19947;-75
2021/10/08 02:13:44;;;;;;;;;;;;;;;9.02;100.00;102446.47;5068945;28;19925;-75
2021/10/08 02:16:11;;;;;;;;;;;;;;;9.07;100.00;102448.94;5070364;28;20074;-75
2021/10/08 02:18:42;;;;;;;;;;;;;;;9.12;100.00;102451.44;5070790;28;19935;-75
2021/10/08 02:21:08;;;;;;;;;;;;;;;9.15;100.00;102449.47;5072955;28;20178;-75
2021/10/08 02:23:38;;;;;;;;;;;;;;;9.16;100.00;102443.09;5072941;28;19928;-75
2021/10/08 02:26:05;;;;;;;;;;;;;;;9.18;100.00;102452.03;5072840;28;19929;-75
2021/10/08 02:28:33;;;;;;;;;;;;;;;9.22;100.00;102441.94;5072912;28;20041;-74
2021/10/08 02:30:59;;;;;;;;;;;;;;;9.27;100.00;102450.69;5072763;28;19939;-75
2021/10/08 02:33:31;;;;;;;;;;;;;;;9.29;100.00;102456.94;5072323;28;19924;-69
2021/10/08 02:35:57;;;;;;;;;;;;;;;9.31;100.00;102448.72;5073885;28;19989;-68
2021/10/08 02:38:24;;;;;;;;;;;;;;;9.34;100.00;102451.28;5072415;28;19935;-69
2021/10/08 02:40:50;;;;;;;;;;;;;;;9.40;100.00;102455.53;5072804;28;19931;-69
2021/10/08 02:43:17;;;;;;;;;;;;;;;9.41;100.00;102458.19;5072268;28;19924;-68
2021/10/08 02:45:44;;;;;;;;;;;;;;;9.42;100.00;102459.94;5072610;28;19931;-68
2021/10/08 02:48:11;;;;;;;;;;;;;;;9.45;100.00;102459.78;5072393;28;19960;-68
2021/10/08 02:50:37;;;;;;;;;;;;;;;9.46;100.00;102466.97;5073456;28;19932;-68
2021/10/08 02:53:08;;;;;;;;;;;;;;;9.44;100.00;102474.28;5072245;28;19924;-68
2021/10/08 02:55:34;;;;;;;;;;;;;;;9.44;100.00;102477.00;5072330;28;19963;-69
2021/10/08 02:58:01;;;;;;;;;;;;;;;9.46;100.00;102476.91;5072284;28;19944;-68
2021/10/08 03:00:27;;;;;;;;;;;;;;;9.48;100.00;102478.59;5072242;28;19925;-69
2021/10/08 03:02:55;;;;;;;;;;;;;;;9.48;100.00;102480.44;5072267;28;19924;-69
2021/10/08 03:05:21;;;;;;;;;;;;;;;9.42;100.00;102472.59;5073261;28;19971;-75
2021/10/08 03:07:47;;;;;;;;;;;;;;;9.40;100.00;102477.22;5071663;28;19946;-75
2021/10/08 03:10:17;;;;;;;;;;;;;;;9.41;100.00;102484.38;5072120;28;19924;-75
2021/10/08 03:12:44;;;;;;;;;;;;;;;9.42;100.00;102473.50;5072003;28;19924;-75
2021/10/08 03:15:11;;;;;;;;;;;;;;;9.44;100.00;102474.28;5072914;28;20360;-69
2021/10/08 03:17:40;;;;;;;;;;;;;;;9.46;100.00;102477.81;5071703;28;19925;-68
2021/10/08 03:20:08;;;;;;;;;;;;;;;9.49;100.00;102472.22;5070687;28;19924;-68
2021/10/08 03:22:35;;;;;;;;;;;;;;;9.52;100.00;102473.91;5071725;28;19933;-68
2021/10/08 03:25:01;;;;;;;;;;;;;;;9.52;100.00;102476.63;5071670;28;19924;-68
2021/10/08 03:27:28;;;;;;;;;;;;;;;9.52;100.00;102474.78;5071181;28;19928;-68
2021/10/08 03:29:54;;;;;;;;;;;;;;;9.54;100.00;102481.00;5067442;28;20041;-68
2021/10/08 03:32:21;;;;;;;;;;;;;;;9.53;100.00;102489.22;5071575;28;20025;-68
2021/10/08 03:34:47;;;;;;;;;;;;;;;9.54;100.00;102482.88;5073061;28;19924;-70
2021/10/08 03:37:18;;;;;;;;;;;;;;;9.55;100.00;102488.22;5072459;28;19986;-70
2021/10/08 03:39:47;;;;;;;;;;;;;;;9.55;100.00;102490.03;5071712;28;19978;-70
2021/10/08 03:42:17;;;;;;;;;;;;;;;9.56;100.00;102483.66;5071284;28;20387;-70
2021/10/08 03:44:46;;;;;;;;;;;;;;;9.57;100.00;102496.25;5071141;28;19924;-69
2021/10/08 03:47:15;;;;;;;;;;;;;;;9.56;100.00;102491.78;5072317;28;20427;-69
2021/10/08 03:49:41;;;;;;;;;;;;;;;9.55;100.00;102493.63;5072497;28;19931;-69
2021/10/08 03:52:10;;;;;;;;;;;;;;;9.55;100.00;102500.88;5071095;28;20034;-69
2021/10/08 03:54:38;;;;;;;;;;;;;;;9.51;100.00;102500.16;5071209;28;19924;-69
2021/10/08 03:57:04;;;;;;;;;;;;;;;9.51;100.00;102511.00;5071111;28;19971;-69
2021/10/08 03:59:31;;;;;;;;;;;;;;;9.52;100.00;102501.88;5071025;28;19929;-69
2021/10/08 04:01:58;;;;;;;;;;;;;;;9.50;100.00;102503.81;5070858;28;20029;-69
2021/10/08 04:04:26;;;;;;;;;;;;;;;9.50;100.00;102505.63;5071000;28;19928;-69
2021/10/08 04:06:53;;;;;;;;;;;;;;;9.51;100.00;102512.81;5070808;28;20027;-69
2021/10/08 04:09:20;;;;;;;;;;;;;;;9.50;100.00;102511.94;5070948;28;19931;-69
2021/10/08 04:11:49;;;;;;;;;;;;;;;9.50;100.00;102509.22;5070824;28;19924;-69
2021/10/08 04:14:16;;;;;;;;;;;;;;;9.51;100.00;102508.28;5070811;28;20387;-69
2021/10/08 04:16:43;;;;;;;;;;;;;;;9.52;100.00;102510.03;5070645;28;20343;-68
2021/10/08 04:19:09;;;;;;;;;;;;;;;9.53;100.00;102505.50;5071510;28;19925;-69
2021/10/08 04:21:36;;;;;;;;;;;;;;;9.53;100.00;102509.06;5070631;28;20031;-69
2021/10/08 04:24:05;;;;;;;;;;;;;;;9.54;100.00;102516.25;5070675;28;19990;-68
2021/10/08 04:26:31;;;;;;;;;;;;;;;9.54;100.00;102512.69;5070440;28;20461;-68
2021/10/08 04:29:00;;;;;;;;;;;;;;;9.54;100.00;102509.97;5070428;28;19928;-74
2021/10/08 04:31:28;;;;;;;;;;;;;;;9.51;100.00;102508.28;5070491;28;20311;-74
2021/10/08 04:33:54;;;;;;;;;;;;;;;9.49;100.00;102512.88;5071310;28;19978;-75
2021/10/08 04:36:20;;;;;;;;;;;;;;;9.46;100.00;102507.63;5071008;28;19929;-75
2021/10/08 04:38:47;;;;;;;;;;;;;;;9.41;100.00;102512.38;5070068;28;19992;-75
2021/10/08 04:41:13;;;;;;;;;;;;;;;9.38;100.00;102512.53;5071179;28;19935;-73
2021/10/08 04:43:42;;;;;;;;;;;;;;;9.34;100.00;102510.91;5070405;28;19931;-74
2021/10/08 04:46:11;;;;;;;;;;;;;;;9.27;100.00;102515.72;5071832;28;20426;-68
2021/10/08 04:48:38;;;;;;;;;;;;;;;9.22;100.00;102509.69;5067877;28;19935;-68
2021/10/08 04:51:05;;;;;;;;;;;;;;;9.17;100.00;102509.00;5053200;28;19932;-69
2021/10/08 04:53:32;;;;;;;;;;;;;;;9.13;100.00;102515.53;5055913;28;19928;-69
2021/10/08 04:55:58;;;;;;;;;;;;;;;9.10;100.00;102515.66;5072976;28;20201;-68
2021/10/08 04:58:26;;;;;;;;;;;;;;;9.07;100.00;102523.94;5070056;28;20383;-69
2021/10/08 05:00:56;;;;;;;;;;;;;;;9.00;100.00;102516.06;5051823;28;19974;-69
2021/10/08 05:03:24;;;;;;;;;;;;;;;8.96;100.00;102519.00;5050095;28;19959;-68
2021/10/08 05:05:52;;;;;;;;;;;;;;;8.91;100.00;102524.63;5068285;28;19936;-69
2021/10/08 05:08:22;;;;;;;;;;;;;;;8.84;100.00;102515.91;5052537;28;19986;-68
2021/10/08 05:10:51;;;;;;;;;;;;;;;8.81;100.00;102521.47;5052152;28;19924;-69
2021/10/08 05:13:18;;;;;;;;;;;;;;;8.80;100.00;102525.13;5052791;28;19931;-69
2021/10/08 05:15:45;;;;;;;;;;;;;;;8.78;100.00;102518.00;5052763;28;20315;-69
2021/10/08 05:18:12;;;;;;;;;;;;;;;8.78;100.00;102524.31;5052838;28;19970;-69
2021/10/08 05:20:40;;;;;;;;;;;;;;;8.82;100.00;102531.34;5053226;28;19931;-69
2021/10/08 05:23:07;;;;;;;;;;;;;;;8.84;100.00;102529.44;5052849;28;19932;-69
2021/10/08 05:25:33;;;;;;;;;;;;;;;8.84;100.00;102528.56;5053050;28;19978;-75
2021/10/08 05:28:01;;;;;;;;;;;;;;;8.83;100.00;102532.22;5060285;28;19970;-75
2021/10/08 05:30:27;;;;;;;;;;;;;;;8.82;100.00;102533.19;5083976;28;19931;-75
2021/10/08 05:32:54;;;;;;;;;;;;;;;8.83;100.00;102527.72;5072906;28;20015;-74
2021/10/08 05:35:22;;;;;;;;;;;;;;;8.86;100.00;102532.97;5071150;28;20376;-74
2021/10/08 05:37:51;;;;;;;;;;;;;;;8.88;100.00;102533.78;5070001;28;19984;-75
2021/10/08 05:40:17;;;;;;;;;;;;;;;8.88;100.00;102538.31;5043596;28;19939;-75
2021/10/08 05:42:46;;;;;;;;;;;;;;;8.88;100.00;102541.03;5049798;28;19947;-74
2021/10/08 05:45:12;;;;;;;;;;;;;;;8.88;100.00;102541.91;5055361;28;19968;-74
2021/10/08 05:47:38;;;;;;;;;;;;;;;8.90;100.00;102549.97;5052659;28;20039;-73
2021/10/08 05:50:05;;;;;;;;;;;;;;;8.94;100.00;102550.69;5062112;28;19928;-74
2021/10/08 05:52:33;;;;;;;;;;;;;;;9.00;100.00;102555.84;5053175;28;19924;-73
2021/10/08 05:55:01;;;;;;;;;;;;;;;9.09;100.00;102551.84;5057210;28;20395;-73
2021/10/08 05:57:28;;;;;;;;;;;;;;;9.15;100.00;102555.16;5055657;28;19928;-73
2021/10/08 05:59:54;;;;;;;;;;;;;;;9.20;100.00;102563.06;5057291;28;19932;-73
2021/10/08 06:02:21;;;;;;;;;;;;;;;9.24;100.00;102561.09;5070399;28;19935;-75
2021/10/08 06:04:47;;;;;;;;;;;;;;;9.27;100.00;102559.09;5072195;28;19924;-75
2021/10/08 06:07:13;;;;;;;;;;;;;;;9.34;100.00;102566.00;5056049;28;20426;-75
2021/10/08 06:09:44;;;;;;;;;;;;;;;9.42;100.00;102556.63;5056162;28;19924;-75
2021/10/08 06:12:12;;;;;;;;;;;;;;;9.49;100.00;102558.97;5061444;28;19928;-75
2021/10/08 06:14:42;;;;;;;;;;;;;;;9.54;100.00;102559.63;5063848;28;20360;-75
2021/10/08 06:17:09;;;;;;;;;;;;;;;9.63;100.00;102561.00;5046080;28;19924;-70
2021/10/08 06:19:36;;;;;;;;;;;;;;;9.72;100.00;102570.56;5057008;28;20406;-70
2021/10/08 06:22:03;;;;;;;;;;;;;;;9.80;100.00;102567.47;5063027;28;19969;-71
2021/10/08 06:24:30;;;;;;;;;;;;;;;9.84;100.00;102569.94;5076176;28;19931;-70
2021/10/08 06:26:57;;;;;;;;;;;;;;;9.87;100.00;102571.63;5062366;28;19932;-70
2021/10/08 06:29:26;;;;;;;;;;;;;;;9.93;100.00;102576.78;5057158;28;19956;-70
2021/10/08 06:31:52;;;;;;;;;;;;;;;9.97;100.00;102572.06;5073508;28;20276;-71
2021/10/08 06:34:19;;;;;;;;;;;;;;;10.05;100.00;102580.72;5057968;28;20390;-70
2021/10/08 06:36:48;;;;;;;;;;;;;;;10.08;100.00;102588.69;5055899;28;19950;-70
2021/10/08 06:39:15;;;;;;;;;;;;;;;10.13;100.00;102594.78;5061689;28;20418;-70
2021/10/08 06:41:42;;;;;;;;;;;;;;;10.18;100.00;102587.28;5066694;28;19932;-69
2021/10/08 06:44:16;;;;;;;;;;;;;;;10.25;100.00;102586.97;5055588;28;19928;-69
2021/10/08 06:46:44;;;;;;;;;;;;;;;10.25;100.00;102597.81;5062583;28;19990;-69
2021/10/08 06:49:11;;;;;;;;;;;;;;;10.28;100.00;102594.97;5072342;28;19931;-69
2021/10/08 06:51:38;;;;;;;;;;;;;;;10.35;100.00;102597.31;5072088;28;20337;-69
2021/10/08 06:54:04;;;;;;;;;;;;;;;10.41;100.00;102597.94;5075826;28;19967;-69
2021/10/08 06:56:32;;;;;;;;;;;;;;;10.49;100.00;102601.16;5070884;28;19924;-70
2021/10/08 06:59:03;;;;;;;;;;;;;;;10.62;100.00;102602.31;5058250;28;19932;-70
2021/10/08 07:01:31;;;;;;;;;;;;;;;10.76;100.00;102595.28;5037411;28;19925;-69
2021/10/08 07:03:59;;;;;;;;;;;;;;;10.94;100.00;102594.28;5072274;28;19990;-70
2021/10/08 07:06:29;;;;;;;;;;;;;;;11.19;100.00;102595.69;5041187;28;19932;-70
2021/10/08 07:09:03;;;;;;;;;;;;;;;11.41;100.00;102592.69;5056551;28;19925;-70
2021/10/08 07:11:30;;;;;;;;;;;;;;;11.66;100.00;102602.19;5055368;28;20110;-70
2021/10/08 07:13:56;;;;;;;;;;;;;;;12.02;100.00;102595.66;5080695;28;20463;-70
2021/10/08 07:16:25;;;;;;;;;;;;;;;12.49;100.00;102589.28;5092984;28;20340;-69
2021/10/08 07:18:54;;;;;;;;;;;;;;;13.13;100.00;102572.63;5077848;28;19929;-69
2021/10/08 07:21:22;;;;;;;;;;;;;;;13.72;100.00;102567.09;5071565;28;19924;-70
2021/10/08 07:23:48;;;;;;;;;;;;;;;14.45;100.00;102559.50;5074897;28;20027;-69
2021/10/08 07:26:15;;;;;;;;;;;;;;;15.07;100.00;102561.59;5071725;28;19924;-68
2021/10/08 07:28:41;;;;;;;;;;;;;;;15.70;100.00;102563.44;5073042;28;20448;-70
2021/10/08 07:31:09;;;;;;;;;;;;;;;15.96;100.00;102563.41;5071706;28;20016;-70
2021/10/08 07:33:36;;;;;;;;;;;;;;;16.19;100.00;102565.31;5069326;28;19925;-70
2021/10/08 07:36:03;;;;;;;;;;;;;;;16.12;100.00;102558.53;5072637;28;19924;-69
2021/10/08 07:38:31;;;;;;;;;;;;;;;16.18;100.00;102562.66;5074602;28;19934;-69
2021/10/08 07:40:57;;;;;;;;;;;;;;;16.35;100.00;102564.09;5076707;28;20292;-70
2021/10/08 07:43:23;;;;;;;;;;;;;;;16.34;100.00;102562.34;5073820;28;19987;-70
2021/10/08 07:45:50;;;;;;;;;;;;;;;16.24;100.00;102568.53;5075429;28;19975;-70
2021/10/08 07:48:16;;;;;;;;;;;;;;;16.21;100.00;102563.31;5072012;28;19928;-70
2021/10/08 07:50:43;;;;;;;;;;;;;;;16.02;100.00;102568.41;5072498;28;19924;-70
2021/10/08 07:53:09;;;;;;;;;;;;;;;15.82;100.00;102569.91;5072401;28;19971;-70
2021/10/08 07:55:37;;;;;;;;;;;;;;;16.10;100.00;102574.22;5079742;28;20003;-69
2021/10/08 07:58:03;;;;;;;;;;;;;;;16.55;100.00;102562.56;5067150;28;20019;-70
2021/10/08 08:00:29;;;;;;;;;;;;;;;16.96;100.00;102568.56;5064069;28;19971;-70
2021/10/08 08:02:56;;;;;;;;;;;;;;;17.21;100.00;102564.72;5071917;28;20415;-70
2021/10/08 08:05:22;;;;;;;;;;;;;;;16.97;100.00;102573.03;5071640;28;19979;-70
2021/10/08 08:07:50;;;;;;;;;;;;;;;16.84;100.00;102568.50;5071637;28;19970;-70
2021/10/08 08:10:16;;;;;;;;;;;;;;;16.89;100.00;102563.56;5086410;28;19924;-70
2021/10/08 08:12:44;;;;;;;;;;;;;;;17.35;100.00;102572.69;5076635;28;20380;-70
2021/10/08 08:15:11;;;;;;;;;;;;;;;17.71;100.00;102570.69;5074355;28;19925;-71
2021/10/08 08:17:38;;;;;;;;;;;;;;;17.84;100.00;102570.56;5070995;28;19943;-70
2021/10/08 08:20:05;;;;;;;;;;;;;;;17.64;100.00;102579.59;5058843;28;19947;-70
2021/10/08 08:22:31;;;;;;;;;;;;;;;17.65;100.00;102573.97;5088375;28;20010;-69
2021/10/08 08:24:57;;;;;;;;;;;;;;;17.24;100.00;102569.97;5077689;28;19967;-71
2021/10/08 08:27:24;;;;;;;;;;;;;;;17.49;100.00;102577.09;5073602;28;20023;-70
2021/10/08 08:29:51;;;;;;;;;;;;;;;17.67;100.00;102577.44;5088511;28;20478;-70
2021/10/08 08:32:17;;;;;;;;;;;;;;;18.17;100.00;102581.59;5089310;28;20026;-70
2021/10/08 08:34:44;;;;;;;;;;;;;;;18.19;100.00;102579.63;5085104;28;19963;-70
2021/10/08 08:37:10;;;;;;;;;;;;;;;18.48;100.00;102570.75;5080941;28;20014;-69
2021/10/08 08:39:38;;;;;;;;;;;;;;;18.47;100.00;102582.75;5071668;28;20023;-70
2021/10/08 08:42:05;;;;;;;;;;;;;;;18.37;100.00;102579.91;5075082;28;20381;-70
2021/10/08 08:44:32;;;;;;;;;;;;;;;18.27;100.00;102576.22;5071064;28;19924;-70
2021/10/08 08:47:00;;;;;;;;;;;;;;;17.89;100.00;102575.66;5071376;28;19933;-69
2021/10/08 08:49:26;;;;;;;;;;;;;;;17.73;100.00;102579.69;5061271;28;19972;-68
2021/10/08 08:51:53;;;;;;;;;;;;;;;18.04;100.00;102570.81;5078994;28;20014;-68
2021/10/08 08:54:19;;;;;;;;;;;;;;;18.49;100.00;102575.25;5071467;28;20410;-69
2021/10/08 08:56:46;;;;;;;;;;;;;;;18.75;100.00;102564.75;5079234;28;19993;-68
2021/10/08 08:59:13;;;;;;;;;;;;;;;19.10;100.00;102568.19;5089589;28;20068;-69
2021/10/08 09:01:58;;;;;;;;;;;;;;;19.37;100.00;102570.31;5084299;28;19958;-69
2021/10/08 09:04:28;;;;;;;;;;;;;;;19.47;100.00;102560.22;5053122;28;19967;-69
2021/10/08 09:06:55;;;;;;;;;;;;;;;19.72;100.00;102563.50;5078544;28;19931;-69
2021/10/08 09:09:22;;;;;;;;;;;;;;;19.86;99.56;102563.13;5082549;28;20475;-69
2021/10/08 09:11:49;;;;;;;;;;;;;;;18.96;100.00;102561.13;5070970;28;20463;-69
2021/10/08 09:14:17;;;;;;;;;;;;;;;18.37;100.00;102566.16;5070787;28;20027;-71
2021/10/08 09:17:02;;;;;;;;;;;;;;;18.78;100.00;102550.72;5072100;28;19994;-72
2021/10/08 09:19:44;;;;;;;;;;;;;;;18.74;98.81;102552.84;5074417;28;20072;-69
2021/10/08 09:22:10;;;;;;;;;;;;;;;18.87;100.00;102560.91;5081105;28;20346;-70
2021/10/08 09:24:36;;;;;;;;;;;;;;;19.26;98.93;102562.19;5074519;28;19968;-69
2021/10/08 09:27:07;;;;;;;;;;;;;;;19.64;91.72;102568.84;5070748;28;20292;-69
2021/10/08 09:29:34;;;;;;;;;;;;;;;19.35;87.43;102566.84;5090957;28;19971;-68
2021/10/08 09:32:00;;;;;;;;;;;;;;;19.05;85.54;102560.31;5094001;28;20010;-69
2021/10/08 09:34:27;;;;;;;;;;;;;;;18.84;83.47;102557.53;5078410;28;20360;-69
2021/10/08 09:36:58;;;;;;;;;;;;;;;19.20;80.84;102563.56;5094566;28;19964;-69
2021/10/08 09:39:29;;;;;;;;;;;;;;;18.86;80.25;102563.78;5094373;28;19924;-69
2021/10/08 09:41:57;;;;;;;;;;;;;;;18.92;79.59;102562.41;5074758;28;20016;-69
2021/10/08 09:44:24;;;;;;;;;;;;;;;19.03;83.00;102563.22;5077119;28;19946;-69
2021/10/08 09:46:50;;;;;;;;;;;;;;;19.26;88.97;102560.28;5074491;28;19977;-69
2021/10/08 09:49:21;;;;;;;;;;;;;;;19.29;77.44;102561.88;5074498;28;19970;-69
2021/10/08 09:51:48;;;;;;;;;;;;;;;19.59;76.35;102563.75;5074555;28;20368;-69
2021/10/08 09:54:15;;;;;;;;;;;;;;;19.45;73.25;102565.00;5074593;28;19963;-69
2021/10/08 09:56:42;;;;;;;;;;;;;;;19.29;71.89;102556.38;5074552;28;20021;-69
2021/10/08 09:59:10;;;;;;;;;;;;;;;19.31;72.23;102552.50;5076367;28;19928;-69
2021/10/08 10:01:37;;;;;;;;;;;;;;;19.51;70.92;102549.81;5074391;28;20014;-69
2021/10/08 10:04:04;;;;;;;;;;;;;;;19.10;69.65;102557.16;5082863;28;19979;-69
2021/10/08 10:06:31;;;;;;;;;;;;;;;19.05;71.80;102543.81;5074121;28;19955;-69
2021/10/08 10:08:57;;;;;;;;;;;;;;;19.41;68.86;102549.75;5074242;28;19924;-69
2021/10/08 10:11:25;;;;;;;;;;;;;;;19.70;70.26;102538.84;5074037;28;20019;-68
2021/10/08 10:13:55;;;;;;;;;;;;;;;19.72;65.52;102549.72;5077267;28;19947;-69
2021/10/08 10:16:21;;;;;;;;;;;;;;;19.94;74.95;102539.53;5075938;28;19952;-69
2021/10/08 10:18:48;;;;;;;;;;;;;;;19.74;64.31;102540.31;5074164;28;19924;-69
2021/10/08 10:21:15;;;;;;;;;;;;;;;20.14;69.56;102541.28;5076175;28;20015;-70
2021/10/08 10:23:42;;;;;;;;;;;;;;;20.41;67.31;102529.50;5059212;28;19963;-71
2021/10/08 10:26:08;;;;;;;;;;;;;;;20.46;64.85;102537.34;5094141;28;20363;-71
2021/10/08 10:28:36;;;;;;;;;;;;;;;20.44;68.18;102531.09;5070444;28;20023;-70
2021/10/08 10:31:03;;;;;;;;;;;;;;;20.27;63.17;102540.09;5074054;28;20022;-70
2021/10/08 10:33:31;;;;;;;;;;;;;;;20.09;66.79;102527.03;5089800;28;19955;-70
2021/10/08 10:35:59;;;;;;;;;;;;;;;19.99;64.39;102537.19;5094077;28;19924;-70
2021/10/08 10:38:30;;;;;;;;;;;;;;;19.57;62.26;102533.59;5090918;28;20311;-70
2021/10/08 10:41:24;;;;;;;;;;;;;;;19.74;70.26;102532.03;5073069;28;19967;-70
2021/10/08 10:43:53;;;;;;;;;;;;;;;19.46;71.29;102536.44;5092095;28;20454;-70
2021/10/08 10:46:23;;;;;;;;;;;;;;;19.22;73.57;102537.66;5093545;28;19981;-69
2021/10/08 10:49:09;;;;;;;;;;;;;;;19.14;71.66;102537.47;5089682;28;19966;-71
2021/10/08 10:51:35;;;;;;;;;;;;;;;19.22;69.08;102545.91;5073384;28;19928;-71
2021/10/08 10:54:01;;;;;;;;;;;;;;;19.12;71.29;102534.00;5073905;28;19924;-71
2021/10/08 10:56:40;;;;;;;;;;;;;;;19.35;78.52;102539.31;5091311;28;19984;-70
2021/10/08 10:59:26;;;;;;;;;;;;;;;19.54;74.29;102539.38;5082018;28;19976;-70
2021/10/08 11:02:12;;;;;;;;;;;;;;;20.06;81.96;102533.72;5093452;28;19959;-70
2021/10/08 11:04:39;;;;;;;;;;;;;;;19.71;72.54;102537.84;5053226;28;19968;-70
2021/10/08 11:07:06;;;;;;;;;;;;;;;19.56;70.81;102534.63;5053118;28;19991;-69
2021/10/08 11:09:32;;;;;;;;;;;;;;;19.00;76.26;102530.47;5092847;28;19930;-69
2021/10/08 11:12:17;;;;;;;;;;;;;;;18.63;77.72;102532.81;5064330;28;19983;-69
2021/10/08 11:14:45;;;;;;;;;;;;;;;18.69;76.94;102532.25;5073120;28;19925;-71
2021/10/08 11:17:28;;;;;;;;;;;;;;;18.74;77.56;102535.47;5083971;28;20011;-70
2021/10/08 11:19:54;;;;;;;;;;;;;;;18.85;78.05;102529.91;5092671;28;20299;-70
2021/10/08 11:22:42;;;;;;;;;;;;;;;18.92;77.21;102527.53;5074526;28;20043;-70
2021/10/08 11:25:10;;;;;;;;;;;;;;;19.05;73.92;102521.78;5072609;28;20352;-69
2021/10/08 11:27:37;;;;;;;;;;;;;;;19.52;75.82;102521.25;5057013;28;20285;-69
2021/10/08 11:30:05;;;;;;;;;;;;;;;19.29;71.23;102520.59;5072653;28;19964;-69
2021/10/08 11:32:34;;;;;;;;;;;;;;;19.51;74.45;102520.38;5073275;28;19970;-69
2021/10/08 11:35:01;;;;;;;;;;;;;;;19.54;76.32;102516.47;5073385;28;20015;-70
2021/10/08 11:37:29;;;;;;;;;;;;;;;19.47;67.54;102529.06;5075006;28;19967;-69
2021/10/08 11:39:55;;;;;;;;;;;;;;;19.39;69.92;102518.75;5076255;28;19924;-69
2021/10/08 11:42:24;;;;;;;;;;;;;;;19.24;71.34;102519.13;5078793;28;19978;-69
2021/10/08 11:45:00;;;;;;;;;;;;;;;19.79;76.55;102514.19;5072059;28;20418;-69
2021/10/08 11:47:31;;;;;;;;;;;;;;;19.77;64.81;102514.34;5067417;28;19972;-69
2021/10/08 11:50:17;;;;;;;;;;;;;;;20.00;66.34;102516.88;5072055;28;19925;-69
2021/10/08 11:52:45;;;;;;;;;;;;;;;19.95;62.78;102521.94;5070862;28;19931;-68
2021/10/08 11:55:14;;;;;;;;;;;;;;;19.81;64.38;102515.84;5092015;28;20437;-69
2021/10/08 11:57:47;;;;;;;;;;;;;;;20.19;63.60;102516.00;5090545;28;19927;-69
2021/10/08 12:00:13;;;;;;;;;;;;;;;20.12;61.17;102514.88;5051710;28;19967;-69
2021/10/08 12:02:41;;;;;;;;;;;;;;;20.37;61.60;102505.13;5053157;28;19948;-69
2021/10/08 12:05:09;;;;;;;;;;;;;;;20.47;59.51;102506.00;5084192;28;20027;-69
2021/10/08 12:07:52;;;;;;;;;;;;;;;20.53;60.67;102508.16;5069374;28;19993;-69
2021/10/08 12:10:18;;;;;;;;;;;;;;;20.39;57.04;102506.75;5072516;28;19988;-69
2021/10/08 12:12:54;;;;;;;;;;;;;;;20.63;56.22;102507.28;5091982;28;20010;-70
2021/10/08 12:15:21;;;;;;;;;;;;;;;20.94;61.25;102507.09;5090283;28;20422;-69
2021/10/08 12:17:50;;;;;;;;;;;;;;;21.30;58.58;102496.19;5092041;28;20015;-69
2021/10/08 12:20:20;;;;;;;;;;;;;;;21.12;52.15;102499.75;5090057;28;19925;-70
2021/10/08 12:22:47;;;;;;;;;;;;;;;21.21;55.77;102496.06;5091482;28;19924;-70
2021/10/08 12:25:15;;;;;;;;;;;;;;;21.39;52.10;102498.91;5079690;28;20071;-71
2021/10/08 12:27:42;;;;;;;;;;;;;;;21.34;51.59;102495.75;5072653;28;20354;-71
2021/10/08 12:30:09;;;;;;;;;;;;;;;21.23;51.19;102498.69;5071656;28;20011;-71
2021/10/08 12:32:35;;;;;;;;;;;;;;;20.95;50.04;102492.25;5071673;28;19968;-76
2021/10/08 12:35:11;;;;;;;;;;;;;;;20.50;51.84;102491.06;5053032;28;20015;-76
2021/10/08 12:37:37;;;;;;;;;;;;;;;20.49;52.92;102489.31;5052704;28;19924;-76
2021/10/08 12:40:10;;;;;;;;;;;;;;;21.10;56.77;102490.78;5069781;28;21530;-76